createdAt,value
2022-11-06T00:02:01.601Z,101029.34
2022-11-06T00:04:30.162Z,101032.78
2022-11-06T00:06:57.768Z,101028.34
2022-11-06T00:09:25.317Z,101033.41
2022-11-06T00:11:53.219Z,101033.28
2022-11-06T00:14:20.891Z,101036.63
2022-11-06T00:16:48.556Z,101024.91
2022-11-06T00:19:16.851Z,101034.91
2022-11-06T00:21:44.999Z,101029.72
2022-11-06T00:24:14.492Z,101026.41
2022-11-06T00:26:42.632Z,101033.28
2022-11-06T00:29:14.385Z,101033.41
2022-11-06T00:31:42.167Z,101030.72
2022-11-06T00:34:10.805Z,101034.78
2022-11-06T00:36:38.624Z,101036.00
2022-11-06T00:39:06.598Z,101029.03
2022-11-06T00:41:34.294Z,101023.47
2022-11-06T00:44:02.971Z,101035.19
2022-11-06T00:46:31.235Z,101026.13
2022-11-06T00:48:58.718Z,101040.44
2022-11-06T00:51:39.440Z,101036.56
2022-11-06T00:54:11.013Z,101037.91
2022-11-06T00:56:38.567Z,101036.34
2022-11-06T00:59:08.121Z,101042.50
2022-11-06T01:01:38.959Z,101049.00
2022-11-06T01:04:11.919Z,101043.50
2022-11-06T01:06:43.139Z,101051.53
2022-11-06T01:09:13.653Z,101050.16
2022-11-06T01:12:11.123Z,101048.38
2022-11-06T01:14:31.537Z,101058.06
2022-11-06T01:16:58.960Z,101065.66
2022-11-06T01:19:26.561Z,101055.53
2022-11-06T01:21:54.497Z,101049.56
2022-11-06T01:24:25.437Z,101063.38
2022-11-06T01:27:24.459Z,101065.56
2022-11-06T01:29:41.287Z,101064.16
2022-11-06T01:32:09.095Z,101061.03
2022-11-06T01:34:36.597Z,101053.25
2022-11-06T01:37:04.377Z,101053.41
2022-11-06T01:39:32.347Z,101059.78
2022-11-06T01:41:59.869Z,101055.53
2022-11-06T01:44:36.078Z,101053.69
2022-11-06T01:47:07.491Z,101037.53
2022-11-06T01:49:38.399Z,101041.06
2022-11-06T01:52:09.140Z,101039.69
2022-11-06T01:54:40.295Z,101040.97
2022-11-06T01:57:08.586Z,101036.84
2022-11-06T01:59:40.187Z,101038.34
2022-11-06T02:02:07.897Z,101031.50
2022-11-06T02:04:42.916Z,101030.28
2022-11-06T02:07:11.119Z,101031.78
2022-11-06T02:09:39.140Z,101028.69
2022-11-06T02:12:12.331Z,101032.66
2022-11-06T02:15:08.468Z,101029.38
2022-11-06T02:17:54.073Z,101031.78
2022-11-06T02:20:32.443Z,101024.31
2022-11-06T02:23:25.256Z,101028.94
2022-11-06T02:26:11.122Z,101023.91
2022-11-06T02:28:53.362Z,101024.31
2022-11-06T02:31:26.120Z,101030.63
2022-11-06T02:34:00.128Z,101029.13
2022-11-06T02:36:34.986Z,101039.13
2022-11-06T02:39:10.192Z,101039.13
2022-11-06T02:41:42.459Z,101035.19
2022-11-06T02:44:15.236Z,101024.75
2022-11-06T02:46:51.609Z,101037.22
2022-11-06T02:49:31.773Z,101035.78
2022-11-06T02:52:06.815Z,101034.75
2022-11-06T02:54:38.439Z,101036.91
2022-11-06T02:57:10.624Z,101034.13
2022-11-06T03:00:04.550Z,101029.31
2022-11-06T03:03:01.272Z,101025.00
2022-11-06T03:05:36.569Z,101034.44
2022-11-06T03:08:34.553Z,101026.44
2022-11-06T03:11:12.404Z,101030.63
2022-11-06T03:13:51.423Z,101026.53
2022-11-06T03:16:47.884Z,101029.97
2022-11-06T03:19:15.317Z,101032.88
2022-11-06T03:21:58.079Z,101031.69
2022-11-06T03:24:34.952Z,101034.69
2022-11-06T03:27:10.733Z,101025.47
2022-11-06T03:29:49.665Z,101027.84
2022-11-06T03:32:39.599Z,101026.34
2022-11-06T03:35:15.454Z,101024.88
2022-11-06T03:37:51.207Z,101017.28
2022-11-06T03:40:22.248Z,101018.22
2022-11-06T03:42:55.116Z,101022.47
2022-11-06T03:45:26.829Z,101024.91
2022-11-06T03:48:05.087Z,101024.63
2022-11-06T03:50:37.701Z,101016.34
2022-11-06T03:53:13.260Z,101021.13
2022-11-06T03:56:02.525Z,101023.19
2022-11-06T03:58:38.933Z,101008.91
2022-11-06T04:01:10.625Z,101015.03
2022-11-06T04:04:00.016Z,101008.88
2022-11-06T04:06:32.743Z,101017.66
2022-11-06T04:09:22.346Z,101006.56
2022-11-06T04:12:09.456Z,101010.38
2022-11-06T04:14:40.225Z,101014.13
2022-11-06T04:17:12.342Z,101018.13
2022-11-06T04:19:49.880Z,101013.84
2022-11-06T04:22:32.635Z,101024.50
2022-11-06T04:25:26.400Z,101016.66
2022-11-06T04:28:26.118Z,101000.00
2022-11-06T04:31:17.352Z,101019.94
2022-11-06T04:34:02.917Z,101015.75
2022-11-06T04:36:42.076Z,101012.88
2022-11-06T04:39:28.993Z,101014.69
2022-11-06T04:42:16.325Z,101013.94
2022-11-06T04:44:50.722Z,101013.50
2022-11-06T04:47:21.629Z,101019.44
2022-11-06T04:49:52.315Z,101029.88
2022-11-06T04:52:27.799Z,101029.56
2022-11-06T04:54:57.938Z,101030.63
2022-11-06T04:57:26.585Z,101031.97
2022-11-06T04:59:54.562Z,101034.94
2022-11-06T05:02:22.191Z,101036.59
2022-11-06T05:04:49.778Z,101025.56
2022-11-06T05:07:17.771Z,101023.34
2022-11-06T05:09:45.891Z,101037.31
2022-11-06T05:12:13.683Z,101037.00
2022-11-06T05:14:41.168Z,101038.91
2022-11-06T05:17:08.684Z,101043.81
2022-11-06T05:19:36.174Z,101028.78
2022-11-06T05:22:22.092Z,101032.59
2022-11-06T05:24:49.587Z,101032.91
2022-11-06T05:27:17.168Z,101031.41
2022-11-06T05:29:44.682Z,101030.22
2022-11-06T05:32:12.276Z,101032.13
2022-11-06T05:34:39.804Z,101028.69
2022-11-06T05:37:07.223Z,101033.75
2022-11-06T05:39:39.005Z,101034.34
2022-11-06T05:42:09.212Z,101017.72
2022-11-06T05:44:37.827Z,101023.94
2022-11-06T05:47:05.308Z,101024.53
2022-11-06T05:49:32.970Z,101023.63
2022-11-06T05:52:00.383Z,101011.09
2022-11-06T05:54:27.937Z,101013.16
2022-11-06T05:56:55.459Z,101009.00
2022-11-06T05:59:22.980Z,101007.78
2022-11-06T06:01:50.604Z,101009.38
2022-11-06T06:04:18.309Z,101017.25
2022-11-06T06:06:45.951Z,101007.25
2022-11-06T06:09:13.419Z,101008.00
2022-11-06T06:11:43.428Z,101014.03
2022-11-06T06:14:11.018Z,100995.91
2022-11-06T06:16:38.799Z,101002.81
2022-11-06T06:19:06.262Z,101006.09
2022-11-06T06:21:33.826Z,100998.81
2022-11-06T06:24:01.327Z,101002.84
2022-11-06T06:26:28.877Z,100999.91
2022-11-06T06:28:56.336Z,101003.81
2022-11-06T06:31:23.939Z,101007.50
2022-11-06T06:33:51.380Z,101007.69
2022-11-06T06:36:18.953Z,100996.69
2022-11-06T06:38:46.497Z,101002.94
2022-11-06T06:41:14.029Z,101007.28
2022-11-06T06:43:41.663Z,100996.69
2022-11-06T06:46:09.630Z,101006.44
2022-11-06T06:48:37.251Z,101003.59
2022-11-06T06:51:05.140Z,101009.25
2022-11-06T06:53:32.608Z,101008.75
2022-11-06T06:56:01.940Z,101006.22
2022-11-06T06:58:30.139Z,101009.66
2022-11-06T07:01:02.704Z,101017.41
2022-11-06T07:03:30.434Z,101014.88
2022-11-06T07:05:59.045Z,101016.84
2022-11-06T07:08:27.839Z,101011.19
2022-11-06T07:11:02.732Z,101017.28
2022-11-06T07:13:35.468Z,101012.09
2022-11-06T07:16:09.206Z,101008.09
2022-11-06T07:18:38.154Z,101016.91
2022-11-06T07:21:10.948Z,101010.84
2022-11-06T07:23:38.994Z,101017.66
2022-11-06T07:26:06.779Z,101015.16
2022-11-06T07:28:34.592Z,101017.03
2022-11-06T07:31:04.495Z,101021.38
2022-11-06T07:33:32.417Z,101009.41
2022-11-06T07:36:08.999Z,101016.03
2022-11-06T07:38:38.154Z,101016.13
2022-11-06T07:41:08.698Z,101013.13
2022-11-06T07:43:36.784Z,101005.47
2022-11-06T07:46:07.180Z,101006.06
2022-11-06T07:48:34.970Z,101005.38
2022-11-06T07:51:04.560Z,101004.97
2022-11-06T07:53:32.737Z,101003.66
2022-11-06T07:56:00.693Z,101010.16
2022-11-06T07:58:28.610Z,101001.06
2022-11-06T08:00:58.611Z,100996.00
2022-11-06T08:03:27.267Z,100995.41
2022-11-06T08:05:55.172Z,100996.69
2022-11-06T08:08:23.147Z,100995.63
2022-11-06T08:10:52.267Z,101001.72
2022-11-06T08:13:19.887Z,101000.56
2022-11-06T08:15:47.532Z,100999.34
2022-11-06T08:18:15.476Z,100999.47
2022-11-06T08:20:43.248Z,100989.22
2022-11-06T08:23:13.286Z,101008.28
2022-11-06T08:25:41.171Z,101010.69
2022-11-06T08:28:09.978Z,101002.75
2022-11-06T08:30:37.822Z,100997.25
2022-11-06T08:33:08.142Z,101006.78
2022-11-06T08:35:36.057Z,100991.94
2022-11-06T08:38:04.474Z,100999.53
2022-11-06T08:40:32.447Z,101004.41
2022-11-06T08:43:05.151Z,100985.84
2022-11-06T08:45:35.950Z,100990.28
2022-11-06T08:48:04.350Z,100990.84
2022-11-06T08:50:33.181Z,100990.53
2022-11-06T08:53:04.371Z,100984.06
2022-11-06T08:55:33.850Z,100972.41
2022-11-06T08:58:01.723Z,100978.25
2022-11-06T09:00:29.637Z,100979.75
2022-11-06T09:03:02.185Z,100980.44
2022-11-06T09:05:31.122Z,100971.00
2022-11-06T09:07:59.542Z,100965.78
2022-11-06T09:10:28.101Z,100975.22
2022-11-06T09:12:58.638Z,100967.47
2022-11-06T09:15:26.841Z,100960.38
2022-11-06T09:17:54.962Z,100963.94
2022-11-06T09:20:24.834Z,100965.66
2022-11-06T09:22:52.857Z,100964.00
2022-11-06T09:25:20.398Z,100962.06
2022-11-06T09:27:58.763Z,100957.00
2022-11-06T09:30:29.759Z,100966.53
2022-11-06T09:32:59.848Z,100962.25
2022-11-06T09:35:36.670Z,100960.44
2022-11-06T09:38:06.183Z,100960.94
2022-11-06T09:40:42.666Z,100962.22
2022-11-06T09:46:26.327Z,100942.69
2022-11-06T09:49:17.129Z,100942.16
2022-11-06T09:52:16.844Z,100944.69
2022-11-06T09:54:55.989Z,100931.94
2022-11-06T09:58:05.799Z,100942.56
2022-11-06T10:00:33.209Z,100936.47
2022-11-06T10:03:12.723Z,100934.06
2022-11-06T10:05:41.663Z,100933.00
2022-11-06T10:08:22.422Z,100930.94
2022-11-06T10:11:54.214Z,100936.41
2022-11-06T10:14:30.261Z,100930.44
2022-11-06T10:17:03.455Z,100932.59
2022-11-06T10:19:30.891Z,100931.97
2022-11-06T10:22:07.306Z,100926.50
2022-11-06T10:24:53.271Z,100931.06
2022-11-06T10:27:33.455Z,100941.47
2022-11-06T10:30:21.240Z,100932.53
2022-11-06T10:33:26.136Z,100927.69
2022-11-06T10:36:09.943Z,100928.69
2022-11-06T10:38:47.278Z,100916.22
2022-11-06T10:41:23.835Z,100921.69
2022-11-06T10:44:14.982Z,100926.66
2022-11-06T10:46:52.046Z,100919.97
2022-11-06T10:49:45.165Z,100922.69
2022-11-06T10:52:33.866Z,100931.78
2022-11-06T10:55:01.256Z,100928.69
2022-11-06T10:57:43.876Z,100932.41
2022-11-06T11:00:14.167Z,100931.72
2022-11-06T11:02:48.690Z,100918.25
2022-11-06T11:05:19.659Z,100925.88
2022-11-06T11:07:51.627Z,100930.16
2022-11-06T11:10:32.872Z,100928.16
2022-11-06T11:13:07.076Z,100917.84
2022-11-06T11:15:46.933Z,100911.53
2022-11-06T11:18:34.378Z,100909.38
2022-11-06T11:21:18.623Z,100909.59
2022-11-06T11:24:04.162Z,100905.38
2022-11-06T11:27:01.103Z,100901.97
2022-11-06T11:29:45.360Z,100900.50
2022-11-06T11:32:16.088Z,100895.03
2022-11-06T11:34:51.358Z,100890.13
2022-11-06T11:37:28.434Z,100897.22
2022-11-06T11:40:16.354Z,100899.75
2022-11-06T11:42:43.939Z,100891.00
2022-11-06T11:45:14.866Z,100900.66
2022-11-06T11:47:46.817Z,100887.72
2022-11-06T11:50:20.616Z,100899.16
2022-11-06T11:52:52.765Z,100897.13
2022-11-06T11:55:26.756Z,100894.97
2022-11-06T11:57:57.704Z,100885.53
2022-11-06T12:00:26.192Z,100893.88
2022-11-06T12:02:58.980Z,100885.81
2022-11-06T12:05:35.059Z,100885.88
2022-11-06T12:08:03.407Z,100876.44
2022-11-06T12:10:33.863Z,100881.56
2022-11-06T12:13:22.359Z,100877.34
2022-11-06T12:16:07.011Z,100881.47
2022-11-06T12:18:41.067Z,100870.81
2022-11-06T12:21:22.172Z,100879.19
2022-11-06T12:24:00.220Z,100883.34
2022-11-06T12:26:37.549Z,100873.44
2022-11-06T12:29:11.931Z,100866.16
2022-11-06T12:31:59.594Z,100871.97
2022-11-06T12:34:54.455Z,100872.47
2022-11-06T12:37:40.359Z,100860.97
2022-11-06T12:40:25.658Z,100856.16
2022-11-06T12:43:07.102Z,100858.22
2022-11-06T12:46:08.546Z,100848.34
2022-11-06T12:48:48.095Z,100849.53
2022-11-06T12:51:37.042Z,100853.59
2022-11-06T12:54:41.451Z,100850.00
2022-11-06T12:57:30.640Z,100856.47
2022-11-06T13:00:21.179Z,100839.63
2022-11-06T13:03:10.865Z,100849.94
2022-11-06T13:05:47.567Z,100847.91
2022-11-06T13:08:35.828Z,100844.13
2022-11-06T13:11:09.590Z,100857.81
2022-11-06T13:13:50.039Z,100853.50
2022-11-06T13:16:28.261Z,100863.81
2022-11-06T13:19:15.630Z,100858.69
2022-11-06T13:21:52.278Z,100866.09
2022-11-06T13:24:44.467Z,100855.28
2022-11-06T13:27:38.528Z,100862.94
2022-11-06T13:30:17.211Z,100852.28
2022-11-06T13:33:10.122Z,100847.81
2022-11-06T13:35:41.601Z,100845.84
2022-11-06T13:38:16.873Z,100846.31
2022-11-06T13:40:48.595Z,100842.56
2022-11-06T13:43:29.690Z,100851.03
2022-11-06T13:46:18.999Z,100849.38
2022-11-06T13:49:08.153Z,100841.25
2022-11-06T13:51:42.617Z,100844.47
2022-11-06T13:54:15.210Z,100847.75
2022-11-06T13:57:05.717Z,100853.19
2022-11-06T13:59:39.144Z,100847.56
2022-11-06T14:02:33.910Z,100831.75
2022-11-06T14:05:04.081Z,100841.19
2022-11-06T14:07:34.169Z,100840.03
2022-11-06T14:10:02.139Z,100836.75
2022-11-06T14:12:30.560Z,100837.63
2022-11-06T14:15:19.331Z,100845.84
2022-11-06T14:18:01.450Z,100835.59
2022-11-06T14:20:29.250Z,100839.00
2022-11-06T14:23:31.577Z,100841.47
2022-11-06T14:26:11.496Z,100836.28
2022-11-06T14:28:41.845Z,100838.13
2022-11-06T14:31:14.022Z,100845.22
2022-11-06T14:33:43.312Z,100835.00
2022-11-06T14:36:25.874Z,100823.59
2022-11-06T14:38:54.211Z,100829.22
2022-11-06T14:41:36.689Z,100826.47
2022-11-06T14:44:26.190Z,100828.25
2022-11-06T14:46:59.988Z,100831.66
2022-11-06T14:49:38.405Z,100818.13
2022-11-06T14:52:15.849Z,100819.31
2022-11-06T14:54:50.894Z,100811.97
2022-11-06T14:57:35.820Z,100807.31
2022-11-06T15:00:04.607Z,100807.91
2022-11-06T15:02:34.796Z,100804.88
2022-11-06T15:05:08.597Z,100801.78
2022-11-06T15:08:10.657Z,100796.66
2022-11-06T15:10:44.290Z,100804.25
2022-11-06T15:13:18.026Z,100795.34
2022-11-06T15:15:50.513Z,100792.03
2022-11-06T15:18:22.875Z,100791.47
2022-11-06T15:21:01.066Z,100791.28
2022-11-06T15:23:31.386Z,100790.00
2022-11-06T15:26:07.833Z,100797.78
2022-11-06T15:28:46.603Z,100788.22
2022-11-06T15:31:18.939Z,100790.00
2022-11-06T15:34:24.955Z,100796.03
2022-11-06T15:37:03.722Z,100786.09
2022-11-06T15:39:38.138Z,100794.75
2022-11-06T15:42:13.538Z,100795.22
2022-11-06T15:44:42.394Z,100793.81
2022-11-06T15:47:27.234Z,100787.41
2022-11-06T15:50:17.002Z,100784.91
2022-11-06T15:52:46.153Z,100779.94
2022-11-06T15:55:28.707Z,100784.91
2022-11-06T15:58:30.393Z,100778.34
2022-11-06T16:01:03.178Z,100775.41
2022-11-06T16:03:32.387Z,100772.25
2022-11-06T16:06:03.503Z,100770.03
2022-11-06T16:08:32.501Z,100770.03
2022-11-06T16:11:01.374Z,100760.47
2022-11-06T16:13:29.362Z,100755.84
2022-11-06T16:15:59.419Z,100757.19
2022-11-06T16:18:35.757Z,100763.13
2022-11-06T16:21:19.355Z,100755.16
2022-11-06T16:23:51.419Z,100759.13
2022-11-06T16:26:32.682Z,100766.66
2022-11-06T16:29:00.721Z,100758.31
2022-11-06T16:31:30.921Z,100750.44
2022-11-06T16:33:58.337Z,100752.34
2022-11-06T16:36:28.227Z,100750.06
2022-11-06T16:39:47.633Z,100747.44
2022-11-06T16:42:22.617Z,100745.50
2022-11-06T16:45:21.508Z,100749.81
2022-11-06T16:48:07.218Z,100751.88
2022-11-06T16:50:53.208Z,100748.84
2022-11-06T16:53:29.608Z,100751.81
2022-11-06T16:56:03.285Z,100756.13
2022-11-06T16:58:34.898Z,100759.72
2022-11-06T17:01:06.371Z,100760.09
2022-11-06T17:03:40.855Z,100752.38
2022-11-06T17:06:21.429Z,100760.22
2022-11-06T17:09:09.904Z,100754.16
2022-11-06T17:11:38.902Z,100737.19
2022-11-06T17:14:18.556Z,100736.97
2022-11-06T17:16:49.910Z,100742.38
2022-11-06T17:19:19.403Z,100742.38
2022-11-06T17:21:47.625Z,100741.03
2022-11-06T17:27:02.650Z,100739.50
2022-11-06T17:29:30.200Z,100742.31
2022-11-06T17:31:57.708Z,100738.28
2022-11-06T17:34:25.174Z,100738.88
2022-11-06T17:36:52.845Z,100736.00
2022-11-06T17:39:20.567Z,100736.91
2022-11-06T17:41:48.169Z,100743.47
2022-11-06T17:44:15.735Z,100734.31
2022-11-06T17:46:47.971Z,100734.88
2022-11-06T17:49:18.487Z,100731.56
2022-11-06T17:51:52.942Z,100731.78
2022-11-06T17:54:22.955Z,100726.38
2022-11-06T17:56:51.563Z,100727.13
2022-11-06T17:59:20.065Z,100729.59
2022-11-06T18:01:51.020Z,100733.91
2022-11-06T18:04:20.318Z,100727.31
2022-11-06T18:06:49.523Z,100730.41
2022-11-06T18:09:17.036Z,100719.03
2022-11-06T18:11:44.729Z,100729.16
2022-11-06T18:14:12.740Z,100724.50
2022-11-06T18:16:43.984Z,100727.66
2022-11-06T18:19:15.077Z,100724.38
2022-11-06T18:21:42.685Z,100721.38
2022-11-06T18:24:10.237Z,100720.50
2022-11-06T18:26:37.876Z,100718.09
2022-11-06T18:29:06.953Z,100720.16
2022-11-06T18:31:35.584Z,100725.31
2022-11-06T18:34:04.262Z,100724.06
2022-11-06T18:36:33.412Z,100728.75
2022-11-06T18:39:00.931Z,100722.63
2022-11-06T18:41:29.962Z,100719.50
2022-11-06T18:43:58.306Z,100722.19
2022-11-06T18:46:30.003Z,100712.22
2022-11-06T18:48:58.414Z,100706.63
2022-11-06T18:51:35.495Z,100713.22
2022-11-06T18:54:09.302Z,100712.94
2022-11-06T18:56:38.700Z,100711.22
2022-11-06T18:59:10.315Z,100716.41
2022-11-06T19:01:38.167Z,100701.56
2022-11-06T19:04:05.979Z,100701.66
2022-11-06T19:06:33.594Z,100704.09
2022-11-06T19:09:01.273Z,100712.47
2022-11-06T19:11:28.776Z,100696.84
2022-11-06T19:13:56.459Z,100705.22
2022-11-06T19:16:24.134Z,100707.75
2022-11-06T19:21:30.955Z,100707.28
2022-11-06T19:24:04.664Z,100705.53
2022-11-06T19:26:35.661Z,100700.09
2022-11-06T19:29:05.945Z,100703.63
2022-11-06T19:31:34.139Z,100691.09
2022-11-06T19:34:05.442Z,100689.91
2022-11-06T19:36:33.560Z,100671.16
2022-11-06T19:39:01.750Z,100676.00
2022-11-06T19:41:31.870Z,100668.94
2022-11-06T19:43:59.499Z,100673.00
2022-11-06T19:46:31.109Z,100672.47
2022-11-06T19:49:04.419Z,100669.81
2022-11-06T19:51:33.577Z,100673.13
2022-11-06T19:54:05.910Z,100671.59
2022-11-06T19:56:33.598Z,100668.94
2022-11-06T19:59:02.135Z,100668.81
2022-11-06T20:01:30.144Z,100673.00
2022-11-06T20:03:57.769Z,100669.72
2022-11-06T20:06:27.529Z,100663.22
2022-11-06T20:08:55.263Z,100664.28
2022-11-06T20:11:22.870Z,100675.03
2022-11-06T20:13:50.388Z,100664.81
2022-11-06T20:16:20.279Z,100656.56
2022-11-06T20:18:53.031Z,100655.66
2022-11-06T20:21:21.506Z,100655.66
2022-11-06T20:23:49.641Z,100642.84
2022-11-06T20:26:17.515Z,100647.53
2022-11-06T20:28:47.551Z,100645.00
2022-11-06T20:31:19.517Z,100646.41
2022-11-06T20:33:47.846Z,100643.13
2022-11-06T20:36:23.254Z,100643.34
2022-11-06T20:38:56.678Z,100631.44
2022-11-06T20:41:24.934Z,100647.94
2022-11-06T20:43:53.512Z,100643.00
2022-11-06T20:46:22.364Z,100643.00
2022-11-06T20:48:50.359Z,100644.00
2022-11-06T20:51:23.544Z,100650.47
2022-11-06T20:53:51.229Z,100626.00
2022-11-06T20:56:20.872Z,100648.44
2022-11-06T20:58:48.581Z,100634.50
2022-11-06T21:01:19.943Z,100631.06
2022-11-06T21:03:50.006Z,100634.38
2022-11-06T21:06:18.912Z,100634.13
2022-11-06T21:08:47.289Z,100631.84
2022-11-06T21:11:18.149Z,100639.94
2022-11-06T21:13:48.520Z,100627.41
2022-11-06T21:16:25.940Z,100630.31
2022-11-06T21:18:54.099Z,100625.75
2022-11-06T21:21:25.245Z,100619.78
2022-11-06T21:23:54.019Z,100625.75
2022-11-06T21:26:36.731Z,100622.19
2022-11-06T21:29:07.074Z,100616.75
2022-11-06T21:31:35.063Z,100631.09
2022-11-06T21:34:04.242Z,100628.03
2022-11-06T21:36:36.992Z,100620.41
2022-11-06T21:39:10.652Z,100619.91
2022-11-06T21:41:39.083Z,100618.13
2022-11-06T21:44:07.728Z,100618.13
2022-11-06T21:46:35.316Z,100613.72
2022-11-06T21:49:02.768Z,100602.19
2022-11-06T21:51:32.952Z,100608.78
2022-11-06T21:54:19.108Z,100614.97
2022-11-06T21:56:50.768Z,100610.94
2022-11-06T21:59:24.924Z,100612.56
2022-11-06T22:01:52.986Z,100597.63
2022-11-06T22:04:21.027Z,100596.09
2022-11-06T22:06:48.545Z,100599.91
2022-11-06T22:09:19.545Z,100594.56
2022-11-06T22:11:49.644Z,100590.09
2022-11-06T22:14:17.458Z,100579.50
2022-11-06T22:16:46.890Z,100595.31
2022-11-06T22:19:17.671Z,100589.09
2022-11-06T22:21:45.672Z,100592.63
2022-11-06T22:24:13.858Z,100592.63
2022-11-06T22:26:41.430Z,100597.88
2022-11-06T22:29:13.685Z,100600.63
2022-11-06T22:31:41.212Z,100593.78
2022-11-06T22:34:10.763Z,100589.72
2022-11-06T22:36:38.861Z,100576.81
2022-11-06T22:39:09.020Z,100576.53
2022-11-06T22:41:39.246Z,100577.31
2022-11-06T22:44:07.633Z,100574.50
2022-11-06T22:46:35.400Z,100568.31
2022-11-06T22:49:04.408Z,100564.88
2022-11-06T22:51:33.256Z,100572.25
2022-11-06T22:54:02.157Z,100567.03
2022-11-06T22:56:31.217Z,100561.75
2022-11-06T22:59:05.515Z,100564.13
2022-11-06T23:01:38.689Z,100574.66
2022-11-06T23:04:15.012Z,100567.53
2022-11-06T23:06:44.476Z,100564.63
2022-11-06T23:09:12.537Z,100564.41
2022-11-06T23:11:40.030Z,100566.41
2022-11-06T23:14:09.169Z,100559.31
2022-11-06T23:16:55.813Z,100560.22
2022-11-06T23:19:24.470Z,100568.16
2022-11-06T23:21:52.691Z,100564.91
2022-11-06T23:24:20.137Z,100557.78
2022-11-06T23:26:47.646Z,100570.31
2022-11-06T23:29:15.256Z,100563.97
2022-11-06T23:31:42.689Z,100573.47
2022-11-06T23:34:10.228Z,100562.47
2022-11-06T23:36:37.741Z,100567.16
2022-11-06T23:39:05.524Z,100572.25
2022-11-06T23:41:48.368Z,100577.44
2022-11-06T23:44:34.362Z,100576.03
2022-11-06T23:47:02.188Z,100573.13
2022-11-06T23:49:30.058Z,100578.94
2022-11-06T23:51:57.955Z,100568.91
2022-11-06T23:54:25.805Z,100561.78
2022-11-06T23:56:53.369Z,100569.13
2022-11-06T23:59:21.142Z,100566.09
